createdAt,value
2019-05-15T00:01:03.113Z,102978.06
2019-05-15T00:04:09.303Z,102969.44
2019-05-15T00:07:13.459Z,102960.55
2019-05-15T00:10:18.224Z,102963.61
2019-05-15T00:13:22.591Z,102961.12
2019-05-15T00:16:29.057Z,102957.03
2019-05-15T00:19:32.985Z,102963.44
2019-05-15T00:22:38.898Z,102965.39
2019-05-15T00:25:43.459Z,102960.36
2019-05-15T00:28:48.030Z,102959.70
2019-05-15T00:31:52.367Z,102961.56
2019-05-15T00:34:58.283Z,102959.88
2019-05-15T00:38:02.670Z,102959.37
2019-05-15T00:41:09.510Z,102960.20
2019-05-15T00:44:13.149Z,102961.80
2019-05-15T00:47:18.123Z,102965.21
2019-05-15T00:50:22.578Z,102963.92
2019-05-15T00:53:28.310Z,102964.73
2019-05-15T00:56:32.887Z,102966.05
2019-05-15T00:59:38.952Z,102957.38
2019-05-15T01:02:43.181Z,102954.67
2019-05-15T01:05:48.029Z,102954.67
2019-05-15T01:08:52.529Z,102951.25
2019-05-15T01:11:58.686Z,102951.77
2019-05-15T01:15:03.057Z,102949.42
2019-05-15T01:18:09.333Z,102947.30
2019-05-15T01:21:13.352Z,102947.08
2019-05-15T01:24:18.895Z,102944.75
2019-05-15T01:27:23.453Z,102939.83
2019-05-15T01:30:28.619Z,102948.30
2019-05-15T01:33:33.001Z,102944.88
2019-05-15T01:36:38.300Z,102948.94
2019-05-15T01:39:42.677Z,102941.08
2019-05-15T01:42:46.991Z,102935.15
2019-05-15T01:45:51.281Z,102932.92
2019-05-15T01:48:55.592Z,102931.26
2019-05-15T01:51:59.879Z,102928.30
2019-05-15T01:55:04.215Z,102921.40
2019-05-15T01:58:09.080Z,102921.10
2019-05-15T02:01:13.761Z,102910.83
2019-05-15T02:04:19.675Z,102918.05
2019-05-15T02:07:24.121Z,102915.17
2019-05-15T02:10:29.223Z,102913.75
2019-05-15T02:13:33.672Z,102915.17
2019-05-15T02:16:39.318Z,102910.77
2019-05-15T02:19:43.813Z,102915.45
2019-05-15T02:22:48.476Z,102910.39
2019-05-15T02:25:52.931Z,102905.91
2019-05-15T02:28:57.194Z,102903.48
2019-05-15T02:32:01.531Z,102906.29
2019-05-15T02:35:05.830Z,102904.63
2019-05-15T02:38:15.520Z,102903.72
2019-05-15T02:41:20.157Z,102893.58
2019-05-15T02:44:24.490Z,102896.05
2019-05-15T02:47:29.189Z,102895.53
2019-05-15T02:50:33.636Z,102897.55
2019-05-15T02:53:39.567Z,102894.34
2019-05-15T02:56:43.876Z,102894.63
2019-05-15T02:59:49.851Z,102890.56
2019-05-15T03:02:54.158Z,102891.39
2019-05-15T03:06:00.171Z,102888.69
2019-05-15T03:09:05.603Z,102890.95
2019-05-15T03:12:09.867Z,102896.70
2019-05-15T03:15:14.471Z,102894.90
2019-05-15T03:18:19.400Z,102890.00
2019-05-15T03:21:23.944Z,102892.89
2019-05-15T03:24:29.107Z,102899.28
2019-05-15T03:27:34.854Z,102898.06
2019-05-15T03:31:11.390Z,102899.62
2019-05-15T03:33:47.221Z,102905.17
2019-05-15T03:36:53.156Z,102898.58
2019-05-15T03:39:59.572Z,102907.44
2019-05-15T03:43:03.844Z,102900.70
2019-05-15T03:46:09.057Z,102896.95
2019-05-15T03:49:13.613Z,102888.58
2019-05-15T03:52:19.074Z,102885.20
2019-05-15T03:55:23.728Z,102877.45
2019-05-15T03:58:28.776Z,102881.88
2019-05-15T04:01:42.371Z,102886.81
2019-05-15T04:04:40.632Z,102881.25
2019-05-15T04:07:44.907Z,102878.52
2019-05-15T04:10:49.202Z,102880.53
2019-05-15T04:13:55.330Z,102878.53
2019-05-15T04:16:59.807Z,102878.98
2019-05-15T04:20:04.545Z,102880.02
2019-05-15T04:23:10.183Z,102881.10
2019-05-15T04:26:15.880Z,102880.56
2019-05-15T04:29:21.349Z,102882.69
2019-05-15T04:32:28.599Z,102881.45
2019-05-15T04:35:31.676Z,102879.78
2019-05-15T04:38:39.152Z,102879.55
2019-05-15T04:41:43.453Z,102883.39
2019-05-15T04:44:49.543Z,102886.00
2019-05-15T04:47:54.789Z,102885.36
2019-05-15T04:50:59.151Z,102889.58
2019-05-15T04:54:03.579Z,102887.53
2019-05-15T04:57:09.255Z,102886.41
2019-05-15T05:00:20.159Z,102883.09
2019-05-15T05:03:24.562Z,102888.73
2019-05-15T05:06:30.093Z,102884.16
2019-05-15T05:09:35.267Z,102883.49
2019-05-15T05:12:41.780Z,102884.72
2019-05-15T05:15:45.557Z,102887.20
2019-05-15T05:18:49.834Z,102890.19
2019-05-15T05:21:54.341Z,102883.39
2019-05-15T05:24:58.656Z,102880.16
2019-05-15T05:28:02.941Z,102881.34
2019-05-15T05:31:08.378Z,102879.44
2019-05-15T05:34:13.451Z,102880.14
2019-05-15T05:37:18.464Z,102877.24
2019-05-15T05:40:22.871Z,102889.83
2019-05-15T05:43:29.831Z,102891.75
2019-05-15T05:46:33.284Z,102891.06
2019-05-15T05:49:38.193Z,102891.23
2019-05-15T05:52:42.737Z,102898.87
2019-05-15T05:55:49.185Z,102895.91
2019-05-15T05:58:53.229Z,102897.79
2019-05-15T06:01:59.007Z,102896.55
2019-05-15T06:05:04.060Z,102893.12
2019-05-15T06:08:09.430Z,102895.98
2019-05-15T06:11:13.694Z,102889.55
2019-05-15T06:14:18.444Z,102889.55
2019-05-15T06:17:22.812Z,102888.69
2019-05-15T06:20:28.283Z,102888.74
2019-05-15T06:23:35.637Z,102887.95
2019-05-15T06:26:38.906Z,102880.13
2019-05-15T06:29:43.229Z,102881.17
2019-05-15T06:33:02.012Z,102880.02
2019-05-15T06:35:53.647Z,102881.45
2019-05-15T06:38:59.071Z,102879.80
2019-05-15T06:42:03.566Z,102878.16
2019-05-15T06:45:08.184Z,102876.51
2019-05-15T06:48:12.614Z,102876.04
2019-05-15T06:51:18.176Z,102874.78
2019-05-15T06:54:22.678Z,102874.78
2019-05-15T06:57:28.692Z,102877.50
2019-05-15T07:00:34.909Z,102870.44
2019-05-15T07:03:39.655Z,102871.81
2019-05-15T07:06:44.085Z,102870.05
2019-05-15T07:09:48.772Z,102863.34
2019-05-15T07:12:53.142Z,102863.34
2019-05-15T07:15:58.556Z,102869.11
2019-05-15T07:19:02.931Z,102861.59
2019-05-15T07:22:09.390Z,102862.07
2019-05-15T07:25:14.066Z,102857.18
2019-05-15T07:28:18.553Z,102853.64
2019-05-15T07:31:22.851Z,102861.59
2019-05-15T07:34:28.370Z,102861.59
2019-05-15T07:37:32.967Z,102863.76
2019-05-15T07:40:38.523Z,102854.88
2019-05-15T07:43:43.273Z,102850.85
2019-05-15T07:46:48.897Z,102865.91
2019-05-15T07:49:53.451Z,102857.91
2019-05-15T07:53:00.447Z,102862.33
2019-05-15T07:56:04.842Z,102857.30
2019-05-15T07:59:09.143Z,102859.05
2019-05-15T08:02:13.429Z,102858.99
2019-05-15T08:05:19.658Z,102854.55
2019-05-15T08:08:23.960Z,102858.03
2019-05-15T08:11:28.680Z,102854.80
2019-05-15T08:14:33.269Z,102857.78
2019-05-15T08:17:58.478Z,102859.05
2019-05-15T08:20:43.759Z,102856.42
2019-05-15T08:23:48.581Z,102848.45
2019-05-15T08:26:52.941Z,102846.70
2019-05-15T08:29:58.142Z,102851.45
2019-05-15T08:33:02.488Z,102841.13
2019-05-15T08:36:08.351Z,102837.96
2019-05-15T08:39:15.330Z,102839.30
2019-05-15T08:42:19.616Z,102838.12
2019-05-15T08:45:28.283Z,102833.99
2019-05-15T08:48:32.957Z,102836.98
2019-05-15T08:51:38.125Z,102830.87
2019-05-15T08:54:42.705Z,102834.09
2019-05-15T08:57:55.077Z,102835.09
2019-05-15T09:00:53.112Z,102834.50
2019-05-15T09:03:58.189Z,102822.03
2019-05-15T09:07:02.754Z,102831.67
2019-05-15T09:10:09.023Z,102816.77
2019-05-15T09:13:13.463Z,102811.72
2019-05-15T09:16:18.532Z,102799.02
2019-05-15T09:19:23.124Z,102801.55
2019-05-15T09:22:29.171Z,102798.97
2019-05-15T09:25:33.784Z,102794.33
2019-05-15T09:28:39.043Z,102791.38
2019-05-15T09:31:43.631Z,102795.81
2019-05-15T09:34:54.987Z,102788.84
2019-05-15T09:37:54.131Z,102788.50
2019-05-15T09:40:59.878Z,102778.83
2019-05-15T09:44:04.602Z,102785.77
2019-05-15T09:47:09.297Z,102787.45
2019-05-15T09:50:14.066Z,102771.11
2019-05-15T09:53:19.011Z,102771.41
2019-05-15T09:56:23.754Z,102766.83
2019-05-15T09:59:28.324Z,102761.84
2019-05-15T10:02:32.666Z,102753.86
2019-05-15T10:05:38.920Z,102753.17
2019-05-15T10:08:43.607Z,102749.72
2019-05-15T10:11:49.157Z,102750.19
2019-05-15T10:14:54.178Z,102750.88
2019-05-15T10:17:59.678Z,102755.65
2019-05-15T10:21:04.322Z,102749.29
2019-05-15T10:24:09.456Z,102745.13
2019-05-15T10:27:14.002Z,102745.84
2019-05-15T10:30:19.076Z,102741.53
2019-05-15T10:33:23.429Z,102742.16
2019-05-15T10:36:28.128Z,102736.71
2019-05-15T10:39:33.898Z,102738.09
2019-05-15T10:42:40.256Z,102734.94
2019-05-15T10:45:44.536Z,102732.33
2019-05-15T10:48:49.495Z,102732.28
2019-05-15T10:51:53.977Z,102729.07
2019-05-15T10:55:00.937Z,102728.20
2019-05-15T10:58:04.670Z,102720.18
2019-05-15T11:01:11.323Z,102725.19
2019-05-15T11:04:14.916Z,102720.19
2019-05-15T11:07:19.633Z,102720.50
2019-05-15T11:10:24.039Z,102717.02
2019-05-15T11:13:28.863Z,102715.23
2019-05-15T11:16:33.488Z,102716.75
2019-05-15T11:19:40.498Z,102714.28
2019-05-15T11:22:45.712Z,102708.42
2019-05-15T11:25:52.098Z,102704.56
2019-05-15T11:28:58.731Z,102709.84
2019-05-15T11:32:02.704Z,102706.14
2019-05-15T11:35:07.270Z,102696.81
2019-05-15T11:38:11.577Z,102696.67
2019-05-15T11:41:18.412Z,102688.21
2019-05-15T11:44:21.831Z,102685.21
2019-05-15T11:47:27.891Z,102685.93
2019-05-15T11:50:33.445Z,102684.01
2019-05-15T11:53:39.794Z,102682.42
2019-05-15T11:56:44.014Z,102678.51
2019-05-15T11:59:55.052Z,102676.40
2019-05-15T12:02:54.617Z,102684.24
2019-05-15T12:06:14.569Z,102681.08
2019-05-15T12:09:09.108Z,102679.22
2019-05-15T12:12:13.020Z,102680.06
2019-05-15T12:15:19.182Z,102676.36
2019-05-15T12:18:23.589Z,102672.76
2019-05-15T12:21:28.643Z,102678.59
2019-05-15T12:24:36.719Z,102669.36
2019-05-15T12:27:40.424Z,102667.92
2019-05-15T12:30:44.997Z,102669.31
2019-05-15T12:33:49.546Z,102669.22
2019-05-15T12:36:58.090Z,102673.13
2019-05-15T13:01:47.459Z,102667.97
2019-05-15T13:04:51.787Z,102663.58
2019-05-15T13:07:58.025Z,102656.45
2019-05-15T13:11:02.511Z,102653.36
2019-05-15T13:14:08.131Z,102657.36
2019-05-15T13:17:12.521Z,102649.38
2019-05-15T13:20:19.575Z,102644.88
2019-05-15T13:23:23.866Z,102643.58
2019-05-15T13:26:28.146Z,102639.97
2019-05-15T13:29:32.444Z,102639.48
2019-05-15T13:32:36.712Z,102631.02
2019-05-15T13:35:40.982Z,102629.72
2019-05-15T13:38:45.257Z,102631.48
2019-05-15T13:41:49.555Z,102626.33
2019-05-15T13:44:53.808Z,102625.39
2019-05-15T13:47:58.095Z,102627.19
2019-05-15T13:51:02.512Z,102626.39
2019-05-15T13:54:08.737Z,102619.96
2019-05-15T13:57:12.830Z,102619.91
2019-05-15T14:00:17.306Z,102616.53
2019-05-15T14:03:21.589Z,102613.80
2019-05-15T14:06:28.435Z,102600.48
2019-05-15T14:09:34.493Z,102609.91
2019-05-15T14:12:39.077Z,102606.03
2019-05-15T14:15:43.409Z,102612.11
2019-05-15T14:18:48.045Z,102600.84
2019-05-15T14:21:52.418Z,102603.87
2019-05-15T14:24:58.378Z,102597.58
2019-05-15T14:28:02.846Z,102593.80
2019-05-15T14:31:09.521Z,102599.34
2019-05-15T14:34:13.159Z,102595.25
2019-05-15T14:37:18.905Z,102596.53
2019-05-15T14:40:23.292Z,102594.56
2019-05-15T14:43:29.446Z,102596.86
2019-05-15T14:46:33.884Z,102596.98
2019-05-15T14:49:44.671Z,102599.70
2019-05-15T14:52:44.160Z,102589.91
2019-05-15T14:55:49.353Z,102596.22
2019-05-15T14:58:53.694Z,102587.34
2019-05-15T15:01:58.162Z,102582.14
2019-05-15T15:05:02.572Z,102581.59
2019-05-15T15:08:20.822Z,102582.59
2019-05-15T15:11:13.033Z,102571.26
2019-05-15T15:14:18.005Z,102578.03
2019-05-15T15:17:22.381Z,102577.71
2019-05-15T15:20:28.576Z,102568.36
2019-05-15T15:23:32.997Z,102564.19
2019-05-15T15:26:39.110Z,102564.94
2019-05-15T15:29:43.277Z,102560.22
2019-05-15T15:32:49.353Z,102556.52
2019-05-15T15:35:53.985Z,102555.98
2019-05-15T15:38:58.771Z,102556.73
2019-05-15T15:42:03.344Z,102553.22
2019-05-15T15:45:09.244Z,102555.45
2019-05-15T15:48:13.714Z,102548.95
2019-05-15T15:51:17.996Z,102554.81
2019-05-15T15:54:22.547Z,102548.01
2019-05-15T15:57:28.529Z,102554.12
2019-05-15T16:00:33.023Z,102548.68
2019-05-15T16:03:37.992Z,102547.22
2019-05-15T16:06:42.379Z,102546.26
2019-05-15T16:09:48.315Z,102545.03
2019-05-15T16:12:52.753Z,102544.98
2019-05-15T16:15:58.856Z,102538.25
2019-05-15T16:19:03.182Z,102541.07
2019-05-15T16:22:08.793Z,102539.09
2019-05-15T16:25:13.731Z,102538.59
2019-05-15T16:28:18.586Z,102545.36
2019-05-15T16:31:22.980Z,102543.61
2019-05-15T16:34:28.404Z,102531.34
2019-05-15T16:37:33.144Z,102532.22
2019-05-15T16:40:39.273Z,102527.09
2019-05-15T16:43:44.659Z,102525.63
2019-05-15T16:46:50.079Z,102529.33
2019-05-15T16:49:54.409Z,102529.36
2019-05-15T16:52:59.033Z,102531.13
2019-05-15T16:56:04.647Z,102530.44
2019-05-15T16:59:08.942Z,102533.27
2019-05-15T17:02:13.541Z,102529.22
2019-05-15T17:05:18.752Z,102523.45
2019-05-15T17:08:23.240Z,102525.52
2019-05-15T17:11:28.916Z,102521.60
2019-05-15T17:14:33.347Z,102525.25
2019-05-15T17:17:38.647Z,102530.63
2019-05-15T17:20:43.980Z,102535.25
2019-05-15T17:23:48.936Z,102532.86
2019-05-15T17:26:53.623Z,102527.75
2019-05-15T17:29:58.508Z,102529.78
2019-05-15T17:33:03.037Z,102527.95
2019-05-15T17:36:07.671Z,102532.65
2019-05-15T17:39:12.354Z,102533.23
2019-05-15T17:42:18.203Z,102532.38
2019-05-15T17:45:22.713Z,102524.85
2019-05-15T17:48:29.187Z,102523.62
2019-05-15T17:51:33.596Z,102529.69
2019-05-15T17:54:38.084Z,102534.02
2019-05-15T17:57:42.746Z,102531.84
2019-05-15T18:00:48.672Z,102534.02
2019-05-15T18:03:54.329Z,102533.75
2019-05-15T18:06:59.167Z,102539.19
2019-05-15T18:10:03.680Z,102535.97
2019-05-15T18:13:11.558Z,102541.45
2019-05-15T18:16:18.080Z,102541.50
2019-05-15T18:19:22.201Z,102539.38
2019-05-15T18:22:26.646Z,102541.13
2019-05-15T18:25:30.978Z,102543.55
2019-05-15T18:28:35.351Z,102549.00
2019-05-15T18:31:40.754Z,102550.44
2019-05-15T18:34:45.229Z,102556.83
2019-05-15T18:37:49.581Z,102546.62
2019-05-15T18:40:54.179Z,102545.73
2019-05-15T18:43:58.645Z,102554.70
2019-05-15T18:47:03.194Z,102557.45
2019-05-15T18:50:12.632Z,102555.72
2019-05-15T18:53:14.328Z,102557.52
2019-05-15T18:56:18.901Z,102561.58
2019-05-15T18:59:23.356Z,102557.69
2019-05-15T19:02:28.169Z,102558.73
2019-05-15T19:05:32.946Z,102565.02
2019-05-15T19:08:38.875Z,102566.48
2019-05-15T19:11:43.591Z,102564.34
2019-05-15T19:14:49.364Z,102572.49
2019-05-15T19:17:54.578Z,102572.49
2019-05-15T19:20:59.586Z,102579.70
2019-05-15T19:24:07.600Z,102579.70
2019-05-15T19:27:12.760Z,102579.72
2019-05-15T19:30:19.097Z,102575.34
2019-05-15T19:33:34.288Z,102577.59
2019-05-15T19:36:31.922Z,102572.30
2019-05-15T19:39:38.559Z,102586.06
2019-05-15T19:42:42.958Z,102590.09
2019-05-15T19:45:47.775Z,102590.09
2019-05-15T19:48:52.511Z,102589.20
2019-05-15T19:51:58.128Z,102585.63
2019-05-15T19:55:02.825Z,102578.04
2019-05-15T19:58:08.834Z,102578.04
2019-05-15T20:01:14.485Z,102582.05
2019-05-15T20:04:19.077Z,102580.25
2019-05-15T20:07:23.631Z,102586.89
2019-05-15T20:10:29.246Z,102589.56
2019-05-15T20:13:33.949Z,102585.08
2019-05-15T20:16:40.081Z,102587.73
2019-05-15T20:19:44.689Z,102581.49
2019-05-15T20:22:49.164Z,102584.59
2019-05-15T20:25:54.810Z,102585.90
2019-05-15T20:28:59.135Z,102583.69
2019-05-15T20:32:03.535Z,102581.88
2019-05-15T20:35:08.826Z,102582.31
2019-05-15T20:38:13.546Z,102582.75
2019-05-15T20:41:18.671Z,102582.75
2019-05-15T20:44:24.164Z,102586.27
2019-05-15T20:47:28.706Z,102584.05
2019-05-15T20:50:33.036Z,102581.80
2019-05-15T20:53:38.476Z,102581.80
2019-05-15T20:56:44.601Z,102574.27
2019-05-15T20:59:49.063Z,102576.92
2019-05-15T21:02:54.444Z,102580.02
2019-05-15T21:06:00.879Z,102577.77
2019-05-15T21:09:05.572Z,102578.66
2019-05-15T21:12:10.028Z,102574.21
2019-05-15T21:15:16.958Z,102571.98
2019-05-15T21:18:23.872Z,102567.97
2019-05-15T21:21:28.210Z,102566.21
2019-05-15T21:24:32.576Z,102558.64
2019-05-15T21:27:41.260Z,102564.83
2019-05-15T21:30:44.421Z,102564.79
2019-05-15T21:33:50.455Z,102568.28
2019-05-15T21:36:54.852Z,102550.02
2019-05-15T21:39:59.247Z,102569.14
2019-05-15T21:43:03.795Z,102552.20
2019-05-15T21:46:09.917Z,102558.84
2019-05-15T21:49:14.218Z,102561.46
2019-05-15T21:52:20.629Z,102561.42
2019-05-15T21:55:24.509Z,102558.26
2019-05-15T21:58:28.993Z,102552.48
2019-05-15T22:01:33.299Z,102552.91
2019-05-15T22:04:49.056Z,102559.08
2019-05-15T22:07:43.669Z,102560.83
2019-05-15T22:10:48.336Z,102557.70
2019-05-15T22:13:52.683Z,102558.13
2019-05-15T22:16:59.982Z,102553.20
2019-05-15T22:20:05.778Z,102560.70
2019-05-15T22:23:11.911Z,102566.95
2019-05-15T22:26:18.455Z,102561.21
2019-05-15T22:29:22.718Z,102557.23
2019-05-15T22:32:29.217Z,102557.23
2019-05-15T22:35:34.001Z,102553.13
2019-05-15T22:38:38.316Z,102544.20
2019-05-15T22:41:42.611Z,102541.60
2019-05-15T22:44:47.830Z,102538.13
2019-05-15T22:47:52.205Z,102540.70
2019-05-15T22:50:58.346Z,102535.30
2019-05-15T22:54:02.734Z,102536.09
2019-05-15T22:57:06.999Z,102529.35
2019-05-15T23:00:11.893Z,102523.52
2019-05-15T23:03:18.796Z,102523.52
2019-05-15T23:06:22.281Z,102518.64
2019-05-15T23:09:28.385Z,102518.16
2019-05-15T23:12:32.603Z,102515.03
2019-05-15T23:15:38.573Z,102519.02
2019-05-15T23:18:42.983Z,102513.27
2019-05-15T23:21:48.773Z,102509.36
2019-05-15T23:24:53.142Z,102511.91
2019-05-15T23:27:58.198Z,102515.39
2019-05-15T23:31:02.709Z,102514.50
2019-05-15T23:34:08.086Z,102511.78
2019-05-15T23:37:12.456Z,102508.18
2019-05-15T23:40:18.005Z,102505.09
2019-05-15T23:43:22.431Z,102511.61
2019-05-15T23:46:28.835Z,102504.49
2019-05-15T23:49:35.623Z,102501.31
2019-05-15T23:52:40.515Z,102497.34
2019-05-15T23:55:44.863Z,102500.88
2019-05-15T23:58:50.182Z,102497.81
